Time;durP1;ratioP1;P1;durP2;ratioP2;P2;SDS_P1;SDS_P2;PMS_P1;PMS_P2;Temp;Humidity;BMP_temperature;BMP_pressure;BME280_temperature;BME280_humidity;BME280_pressure;Samples;Min_cycle;Max_cycle;Signal;HPM_P1;HPM_P2
2022/06/09 00:01:55;;;;;;;17.52;4.25;;;14.30;99.90;;;;;;5094839;28;20020;-67
2022/06/09 00:04:21;;;;;;;17.35;4.38;;;14.30;99.90;;;;;;5087049;28;20029;-66
2022/06/09 00:06:51;;;;;;;17.30;4.45;;;14.30;99.90;;;;;;5054319;28;20047;-68
2022/06/09 00:09:20;;;;;;;17.10;4.10;;;14.40;99.90;;;;;;5053036;28;20098;-67
2022/06/09 00:11:49;;;;;;;18.92;3.70;;;14.40;99.90;;;;;;5053707;28;20031;-66
2022/06/09 00:14:16;;;;;;;16.85;4.00;;;14.40;99.90;;;;;;5054555;28;20082;-67
2022/06/09 00:16:42;;;;;;;18.73;3.85;;;14.50;99.90;;;;;;5054356;28;20454;-68
2022/06/09 00:19:09;;;;;;;13.85;3.50;;;14.40;99.90;;;;;;5054358;28;20025;-67
2022/06/09 00:21:36;;;;;;;15.65;3.53;;;14.50;99.90;;;;;;5054587;28;20037;-67
2022/06/09 00:24:02;;;;;;;12.80;3.83;;;14.50;99.90;;;;;;5053894;28;20064;-65
2022/06/09 00:26:29;;;;;;;14.05;3.13;;;14.50;99.90;;;;;;5053832;28;20029;-66
2022/06/09 00:28:55;;;;;;;11.65;3.72;;;14.60;99.90;;;;;;5053918;28;20138;-66
2022/06/09 00:31:21;;;;;;;17.13;3.15;;;14.60;99.90;;;;;;5054149;28;20092;-65
2022/06/09 00:33:46;;;;;;;12.57;3.30;;;14.60;99.90;;;;;;5052660;28;20027;-66
2022/06/09 00:36:12;;;;;;;12.02;3.10;;;14.60;99.90;;;;;;5073391;28;20109;-66
2022/06/09 00:38:38;;;;;;;12.40;3.35;;;14.60;99.90;;;;;;5072764;28;20355;-65
2022/06/09 00:41:04;;;;;;;11.10;2.85;;;14.60;99.90;;;;;;5053506;28;20048;-66
2022/06/09 00:43:30;;;;;;;15.75;3.92;;;14.60;99.90;;;;;;5067062;28;20017;-68
2022/06/09 00:46:05;;;;;;;15.20;3.97;;;14.60;99.90;;;;;;5073648;28;20028;-66
2022/06/09 00:48:54;;;;;;;13.15;3.75;;;14.60;99.90;;;;;;5073706;28;20052;-66
2022/06/09 00:51:41;;;;;;;17.60;3.22;;;14.60;99.90;;;;;;5073441;28;20051;-66
2022/06/09 00:54:20;;;;;;;13.00;3.03;;;14.50;99.90;;;;;;5073500;28;20457;-67
2022/06/09 00:56:55;;;;;;;13.00;3.10;;;14.60;99.90;;;;;;5058127;28;20082;-69
2022/06/09 00:59:26;;;;;;;7.78;2.95;;;14.50;99.90;;;;;;5053433;28;20017;-66
2022/06/09 01:01:58;;;;;;;10.15;2.97;;;14.60;99.90;;;;;;5067332;28;20037;-67
2022/06/09 01:04:25;;;;;;;;;;;14.50;99.90;;;;;;5073865;28;20020;-66
2022/06/09 01:06:56;;;;;;;8.20;2.10;;;14.50;99.90;;;;;;5073355;28;19909;-66
2022/06/09 01:09:25;;;;;;;10.15;3.22;;;14.50;99.90;;;;;;5071981;28;20405;-67
2022/06/09 01:11:54;;;;;;;13.00;3.15;;;14.50;99.90;;;;;;5073219;28;20028;-67
2022/06/09 01:14:25;;;;;;;8.48;2.40;;;14.50;99.90;;;;;;5072260;28;20024;-66
2022/06/09 01:17:07;;;;;;;8.82;2.38;;;14.50;99.90;;;;;;5072985;28;20099;-66
2022/06/09 01:19:59;;;;;;;7.32;2.20;;;14.40;99.90;;;;;;5072975;28;20025;-67
2022/06/09 01:23:02;;;;;;;8.55;2.30;;;14.40;99.90;;;;;;5073141;28;20034;-66
2022/06/09 01:25:59;;;;;;;13.25;2.50;;;14.40;99.90;;;;;;5064331;28;20473;-67
2022/06/09 01:28:47;;;;;;;8.70;2.65;;;14.40;99.90;;;;;;5052884;28;20044;-65
2022/06/09 01:31:21;;;;;;;10.57;2.53;;;14.40;99.90;;;;;;5053454;28;20044;-65
2022/06/09 01:34:05;;;;;;;8.75;2.35;;;14.40;99.90;;;;;;5055635;28;20020;-65
2022/06/09 01:37:05;;;;;;;9.80;2.65;;;14.30;99.90;;;;;;5076787;28;20485;-66
2022/06/09 01:39:49;;;;;;;10.68;2.70;;;14.30;99.90;;;;;;5060070;28;20032;-69
2022/06/09 01:42:26;;;;;;;6.68;2.22;;;14.20;99.90;;;;;;5082240;28;20043;-65
2022/06/09 01:45:07;;;;;;;9.13;2.60;;;14.30;99.90;;;;;;5072531;28;20031;-69
2022/06/09 01:47:45;;;;;;;7.28;2.42;;;14.20;99.90;;;;;;5058780;28;20055;-66
2022/06/09 01:50:22;;;;;;;12.13;2.80;;;14.20;99.90;;;;;;5052197;28;20048;-66
2022/06/09 01:52:48;;;;;;;11.20;2.85;;;14.20;99.90;;;;;;5052665;28;20021;-67
2022/06/09 01:55:19;;;;;;;7.25;2.80;;;14.20;99.90;;;;;;5052493;28;20025;-65
2022/06/09 01:57:49;;;;;;;10.15;3.20;;;14.20;99.90;;;;;;5052227;28;20024;-66
2022/06/09 02:00:18;;;;;;;8.13;3.00;;;14.20;99.90;;;;;;5052414;28;20048;-67
2022/06/09 02:03:07;;;;;;;7.80;3.28;;;14.20;99.90;;;;;;5052634;28;20472;-65
2022/06/09 02:05:39;;;;;;;8.23;2.40;;;14.20;99.90;;;;;;5052402;28;20104;-66
2022/06/09 02:08:07;;;;;;;8.90;3.03;;;14.20;99.90;;;;;;5052343;28;20017;-65
2022/06/09 02:10:39;;;;;;;5.70;2.28;;;14.20;99.90;;;;;;5052303;28;20482;-66
2022/06/09 02:13:30;;;;;;;7.32;2.65;;;14.20;99.90;;;;;;5059862;28;20051;-68
2022/06/09 02:16:00;;;;;;;9.55;2.40;;;14.20;99.90;;;;;;5058549;28;20025;-65
2022/06/09 02:18:29;;;;;;;8.70;3.00;;;14.20;99.90;;;;;;5055821;28;20021;-67
2022/06/09 02:21:00;;;;;;;10.32;2.97;;;14.20;99.90;;;;;;5066578;28;20454;-66
2022/06/09 02:23:26;;;;;;;7.32;2.83;;;14.20;99.90;;;;;;5068407;28;20020;-67
2022/06/09 02:25:52;;;;;;;9.73;2.50;;;14.20;99.90;;;;;;5062752;28;20059;-67
2022/06/09 02:28:18;;;;;;;4.72;2.10;;;14.20;99.90;;;;;;5072347;28;20028;-68
2022/06/09 02:30:43;;;;;;;6.38;2.88;;;14.20;99.90;;;;;;5053934;28;20053;-68
2022/06/09 02:33:10;;;;;;;7.78;2.35;;;14.20;99.90;;;;;;5050530;28;20021;-69
2022/06/09 02:35:37;;;;;;;8.13;2.25;;;14.20;99.90;;;;;;5051887;28;20021;-66
2022/06/09 02:38:03;;;;;;;12.68;2.58;;;14.20;99.90;;;;;;5052565;28;20078;-66
2022/06/09 02:40:30;;;;;;;10.38;2.70;;;14.20;99.90;;;;;;5051844;28;20447;-66
2022/06/09 02:42:56;;;;;;;7.18;2.55;;;14.20;99.90;;;;;;5060947;28;20087;-67
2022/06/09 02:45:22;;;;;;;11.45;2.35;;;14.20;99.90;;;;;;5050569;28;20021;-67
2022/06/09 02:47:47;;;;;;;7.75;2.45;;;14.20;99.90;;;;;;5055078;28;20040;-66
2022/06/09 02:50:14;;;;;;;9.18;2.33;;;14.20;99.90;;;;;;5067774;28;20020;-69
2022/06/09 02:52:41;;;;;;;8.63;2.25;;;14.20;99.90;;;;;;5071752;28;20460;-66
2022/06/09 02:55:08;;;;;;;11.60;2.50;;;14.10;99.90;;;;;;5071899;28;20025;-66
2022/06/09 02:57:34;;;;;;;6.25;3.00;;;14.10;99.90;;;;;;5071910;28;20019;-66
2022/06/09 03:00:00;;;;;;;6.22;2.22;;;14.10;99.90;;;;;;5078813;28;20032;-68
2022/06/09 03:02:25;;;;;;;6.55;2.00;;;14.10;99.90;;;;;;5078499;28;20104;-67
2022/06/09 03:04:51;;;;;;;7.53;2.25;;;14.10;99.90;;;;;;5067965;28;20025;-70
2022/06/09 03:07:16;;;;;;;9.65;2.20;;;14.10;99.90;;;;;;5075447;28;20077;-69
2022/06/09 03:09:42;;;;;;;9.70;2.42;;;14.10;99.90;;;;;;5075218;28;20131;-66
2022/06/09 03:12:09;;;;;;;8.57;2.38;;;14.10;99.90;;;;;;5074654;28;20033;-66
2022/06/09 03:14:35;;;;;;;8.05;1.80;;;14.10;99.90;;;;;;5072003;28;20454;-67
2022/06/09 03:17:02;;;;;;;8.05;2.17;;;14.10;99.90;;;;;;5074770;28;20074;-66
2022/06/09 03:19:28;;;;;;;7.60;2.42;;;14.00;99.90;;;;;;5073213;28;20032;-66
2022/06/09 03:21:54;;;;;;;10.82;2.95;;;14.00;99.90;;;;;;5074949;28;20029;-67
2022/06/09 03:24:19;;;;;;;6.80;2.22;;;14.00;99.90;;;;;;5074929;28;20032;-66
2022/06/09 03:26:45;;;;;;;8.43;2.28;;;14.00;99.90;;;;;;5074903;28;20108;-66
2022/06/09 03:29:10;;;;;;;11.98;2.40;;;14.00;99.90;;;;;;5072800;28;20032;-66
2022/06/09 03:31:36;;;;;;;8.75;2.45;;;14.00;99.90;;;;;;5073294;28;20055;-65
2022/06/09 03:34:02;;;;;;;12.40;2.83;;;14.00;99.90;;;;;;5074904;28;20103;-68
2022/06/09 03:36:29;;;;;;;10.20;2.88;;;14.00;99.90;;;;;;5074356;28;20102;-66
2022/06/09 03:38:55;;;;;;;12.70;2.80;;;14.00;99.90;;;;;;5074226;28;20087;-67
2022/06/09 03:41:20;;;;;;;11.52;2.92;;;14.00;99.90;;;;;;5074769;28;20040;-66
2022/06/09 03:43:46;;;;;;;11.13;2.70;;;14.00;99.90;;;;;;5075200;28;20439;-70
2022/06/09 03:46:12;;;;;;;11.23;2.88;;;14.00;99.90;;;;;;5072827;28;20103;-65
2022/06/09 03:48:38;;;;;;;11.77;2.80;;;14.10;99.90;;;;;;5064654;28;20207;-66
2022/06/09 03:51:03;;;;;;;7.95;2.65;;;14.10;99.90;;;;;;5078032;28;20509;-70
2022/06/09 03:53:29;;;;;;;10.25;2.83;;;14.10;99.90;;;;;;5074873;28;20029;-68
2022/06/09 03:55:57;;;;;;;9.80;2.92;;;14.10;99.90;;;;;;5074644;28;20353;-69
2022/06/09 03:58:23;;;;;;;11.85;3.13;;;14.10;99.90;;;;;;5073221;28;20069;-66
2022/06/09 04:00:49;;;;;;;11.23;3.05;;;14.10;99.90;;;;;;5074076;28;20036;-66
2022/06/09 04:03:14;;;;;;;7.47;3.05;;;14.20;99.90;;;;;;5074081;28;20362;-66
2022/06/09 04:05:40;;;;;;;10.75;3.67;;;14.20;99.90;;;;;;5073567;28;20107;-68
2022/06/09 04:08:06;;;;;;;12.80;3.40;;;14.30;99.90;;;;;;5074709;28;20446;-66
2022/06/09 04:10:33;;;;;;;14.07;3.10;;;14.40;99.90;;;;;;5074224;28;20048;-66
2022/06/09 04:12:59;;;;;;;11.80;3.17;;;14.50;99.90;;;;;;5073715;28;20470;-66
2022/06/09 04:15:25;;;;;;;10.13;2.92;;;14.70;99.90;;;;;;5073822;28;20039;-66
2022/06/09 04:17:52;;;;;;;16.05;3.08;;;14.80;99.90;;;;;;5072750;28;20393;-66
2022/06/09 04:20:20;;;;;;;8.30;2.70;;;15.00;99.90;;;;;;5072567;28;20020;-66
2022/06/09 04:22:45;;;;;;;9.48;2.60;;;15.20;99.90;;;;;;5073987;28;20050;-67
2022/06/09 04:25:12;;;;;;;11.55;2.92;;;15.40;99.90;;;;;;5073937;28;20445;-65
2022/06/09 04:27:38;;;;;;;5.75;2.17;;;15.60;99.90;;;;;;5073265;28;20020;-67
2022/06/09 04:30:04;;;;;;;5.25;2.33;;;15.80;99.90;;;;;;5073197;28;20048;-66
2022/06/09 04:32:30;;;;;;;8.80;2.17;;;16.00;99.90;;;;;;5070972;28;20032;-70
2022/06/09 04:34:56;;;;;;;7.00;2.38;;;16.20;99.90;;;;;;5073782;28;20078;-65
2022/06/09 04:37:59;;;;;;;6.18;1.88;;;16.40;99.90;;;;;;5074028;28;20418;-66
2022/06/09 04:40:08;;;;;;;3.85;1.92;;;16.60;99.90;;;;;;5073471;28;20456;-65
2022/06/09 04:42:34;;;;;;;7.10;2.05;;;16.70;99.90;;;;;;5071572;28;20071;-67
2022/06/09 04:44:59;;;;;;;10.13;2.25;;;16.80;99.90;;;;;;5073331;28;20052;-65
2022/06/09 04:47:25;;;;;;;9.27;2.13;;;16.80;99.90;;;;;;5072905;28;20024;-66
2022/06/09 04:49:50;;;;;;;5.10;1.95;;;16.90;99.90;;;;;;5076078;28;20025;-66
2022/06/09 04:52:16;;;;;;;6.25;1.85;;;17.10;99.90;;;;;;5073356;28;20024;-68
2022/06/09 04:54:42;;;;;;;7.93;1.45;;;17.20;99.90;;;;;;5073774;28;20046;-70
2022/06/09 04:57:07;;;;;;;6.38;1.90;;;17.30;99.90;;;;;;5071348;28;20025;-68
2022/06/09 04:59:33;;;;;;;6.07;1.70;;;17.50;99.90;;;;;;5073447;28;20016;-69
2022/06/09 05:01:58;;;;;;;5.85;1.70;;;17.50;99.90;;;;;;5073283;28;20086;-69
2022/06/09 05:04:24;;;;;;;7.72;2.03;;;17.70;99.90;;;;;;5072437;28;20024;-67
2022/06/09 05:06:50;;;;;;;10.98;1.80;;;17.70;99.90;;;;;;5073257;28;20043;-68
2022/06/09 05:09:17;;;;;;;6.68;1.70;;;17.80;99.90;;;;;;5073405;28;20035;-67
2022/06/09 05:11:42;;;;;;;9.43;1.88;;;17.90;99.90;;;;;;5073157;28;20027;-65
2022/06/09 05:14:08;;;;;;;8.07;1.58;;;17.90;99.90;;;;;;5072728;28;20025;-69
2022/06/09 05:16:34;;;;;;;10.13;1.92;;;18.00;99.90;;;;;;5073487;28;20778;-65
2022/06/09 05:19:00;;;;;;;5.07;1.02;;;18.00;99.90;;;;;;5073092;28;20036;-65
2022/06/09 05:21:26;;;;;;;3.15;1.33;;;17.90;99.90;;;;;;5072887;28;20115;-65
2022/06/09 05:23:51;;;;;;;4.40;1.23;;;17.80;99.90;;;;;;5073002;28;20024;-66
2022/06/09 05:26:17;;;;;;;6.93;1.63;;;17.70;99.90;;;;;;5071741;28;20055;-65
2022/06/09 05:28:43;;;;;;;4.60;1.20;;;17.90;99.90;;;;;;5072893;28;20024;-68
2022/06/09 05:31:08;;;;;;;7.45;1.42;;;18.00;99.90;;;;;;5072592;28;20056;-68
2022/06/09 05:33:34;;;;;;;10.85;1.75;;;18.40;99.90;;;;;;5072792;28;20031;-68
2022/06/09 05:36:00;;;;;;;9.07;1.30;;;18.80;99.90;;;;;;5072713;28;20519;-65
2022/06/09 05:46:42;;;;;;;5.53;1.48;;;20.40;99.90;;;;;;5071811;28;20043;-66
2022/06/09 05:49:09;;;;;;;5.97;1.58;;;20.80;99.90;;;;;;5072896;28;20024;-64
2022/06/09 05:51:35;;;;;;;13.38;1.50;;;21.10;99.90;;;;;;5071629;28;20032;-66
2022/06/09 05:54:02;;;;;;;6.88;1.75;;;21.30;99.90;;;;;;5072342;28;20093;-67
2022/06/09 05:56:27;;;;;;;5.40;1.40;;;21.20;99.90;;;;;;5072033;28;20040;-69
2022/06/09 05:58:53;;;;;;;2.95;1.33;;;21.00;99.90;;;;;;5072665;28;20028;-67
2022/06/09 06:01:19;;;;;;;6.38;1.40;;;20.80;99.90;;;;;;5072148;28;20063;-67
2022/06/09 06:03:44;;;;;;;9.75;1.50;;;20.80;99.90;;;;;;5071430;28;20031;-66
2022/06/09 06:08:55;;;;;;;9.35;1.80;;;22.20;99.90;;;;;;5061984;28;20043;-67
2022/06/09 06:11:21;;;;;;;8.00;1.83;;;23.00;99.90;;;;;;5072376;28;20055;-67
2022/06/09 06:13:47;;;;;;;6.43;2.00;;;23.50;99.90;;;;;;5072339;28;20033;-68
2022/06/09 06:16:13;;;;;;;6.50;1.40;;;23.90;99.90;;;;;;5071829;28;20128;-65
2022/06/09 06:18:38;;;;;;;11.07;2.70;;;24.40;99.90;;;;;;5072415;28;20032;-67
2022/06/09 06:21:04;;;;;;;9.38;2.75;;;24.60;99.10;;;;;;5071815;28;20063;-66
2022/06/09 06:23:30;;;;;;;7.07;2.00;;;24.80;99.00;;;;;;5071592;28;20036;-66
2022/06/09 06:25:57;;;;;;;10.13;3.60;;;24.90;98.60;;;;;;5071974;28;20033;-65
2022/06/09 06:28:22;;;;;;;8.40;2.60;;;25.30;98.40;;;;;;5071768;28;20453;-67
2022/06/09 06:30:49;;;;;;;8.38;2.28;;;25.60;97.90;;;;;;5071104;28;20353;-66
2022/06/09 06:33:15;;;;;;;9.80;1.80;;;25.90;97.20;;;;;;5071219;28;20028;-69
2022/06/09 06:35:41;;;;;;;8.05;1.92;;;25.80;96.90;;;;;;5071571;28;20025;-67
2022/06/09 06:38:07;;;;;;;7.80;1.90;;;25.90;96.50;;;;;;5076297;28;20020;-65
2022/06/09 06:40:32;;;;;;;8.57;1.63;;;26.00;96.30;;;;;;5075962;28;20070;-67
2022/06/09 06:42:58;;;;;;;10.52;1.70;;;26.20;96.20;;;;;;5076117;28;20440;-67
2022/06/09 06:45:25;;;;;;;6.63;1.50;;;26.40;95.70;;;;;;5074021;28;20071;-69
2022/06/09 06:47:51;;;;;;;6.78;1.70;;;26.20;95.40;;;;;;5075076;28;20086;-67
2022/06/09 06:50:17;;;;;;;5.95;1.60;;;26.00;95.90;;;;;;5075805;28;20036;-66
2022/06/09 06:52:42;;;;;;;13.18;1.50;;;26.40;95.20;;;;;;5070522;28;20017;-66
2022/06/09 06:55:12;;;;;;;7.75;1.40;;;26.50;95.00;;;;;;5057532;28;20029;-67
2022/06/09 06:57:38;;;;;;;7.72;1.60;;;26.30;94.50;;;;;;5073414;28;20043;-66
2022/06/09 07:00:09;;;;;;;9.23;1.38;;;25.70;95.00;;;;;;5075537;28;20399;-68
2022/06/09 07:02:35;;;;;;;7.15;1.23;;;25.70;95.20;;;;;;5075687;28;20027;-68
2022/06/09 07:05:01;;;;;;;8.00;1.77;;;25.60;94.90;;;;;;5075815;28;20099;-68
2022/06/09 07:07:26;;;;;;;6.95;1.63;;;25.50;95.10;;;;;;5075863;28;20028;-69
2022/06/09 07:09:52;;;;;;;7.18;1.35;;;25.30;94.50;;;;;;5075844;28;20025;-65
2022/06/09 07:12:19;;;;;;;7.80;1.77;;;24.90;95.20;;;;;;5075411;28;20047;-66
2022/06/09 07:14:44;;;;;;;11.93;2.10;;;24.60;95.40;;;;;;5074403;28;20382;-66
2022/06/09 07:17:10;;;;;;;7.20;1.60;;;24.40;96.00;;;;;;5074385;28;20024;-66
2022/06/09 07:19:36;;;;;;;8.13;1.63;;;24.50;95.80;;;;;;5075836;28;20016;-66
2022/06/09 07:22:03;;;;;;;4.25;1.33;;;24.70;95.50;;;;;;5075187;28;20029;-67
2022/06/09 07:24:29;;;;;;;10.48;2.05;;;24.70;95.40;;;;;;5073335;28;20032;-67
2022/06/09 07:26:54;;;;;;;6.40;1.50;;;24.60;95.20;;;;;;5074178;28;20374;-65
2022/06/09 07:29:21;;;;;;;8.88;1.63;;;24.70;95.70;;;;;;5075302;28;20095;-66
2022/06/09 07:31:47;;;;;;;7.15;1.42;;;24.90;94.90;;;;;;5074983;28;20052;-65
2022/06/09 07:34:13;;;;;;;6.32;1.65;;;24.70;95.60;;;;;;5075454;28;20021;-65
2022/06/09 07:36:39;;;;;;;8.23;1.40;;;24.90;95.30;;;;;;5075132;28;20086;-66
2022/06/09 07:39:05;;;;;;;6.05;1.50;;;25.10;94.50;;;;;;5074361;28;20104;-65
2022/06/09 07:41:31;;;;;;;4.95;1.30;;;25.10;94.60;;;;;;5075199;28;20103;-64
2022/06/09 07:43:58;;;;;;;6.18;1.50;;;24.90;94.80;;;;;;5075182;28;20028;-65
2022/06/09 07:46:23;;;;;;;9.98;1.55;;;24.90;94.80;;;;;;5074845;28;20499;-67
2022/06/09 07:48:49;;;;;;;7.70;1.67;;;24.70;95.10;;;;;;5074765;28;20033;-67
2022/06/09 07:51:15;;;;;;;9.68;1.52;;;24.70;94.70;;;;;;5074221;28;20357;-65
2022/06/09 07:53:40;;;;;;;6.18;1.23;;;25.00;95.00;;;;;;5072600;28;20032;-66
2022/06/09 07:56:06;;;;;;;7.82;1.25;;;25.20;94.70;;;;;;5074448;28;20453;-66
2022/06/09 07:58:32;;;;;;;7.78;1.52;;;25.10;94.50;;;;;;5074651;28;20021;-65
2022/06/09 08:00:58;;;;;;;9.55;1.85;;;25.00;95.00;;;;;;5074497;28;20032;-64
2022/06/09 08:03:26;;;;;;;5.32;1.00;;;24.90;95.00;;;;;;5074119;28;20099;-67
2022/06/09 08:05:53;;;;;;;10.80;1.80;;;24.70;94.80;;;;;;5074734;28;20020;-65
2022/06/09 08:08:19;;;;;;;11.43;2.15;;;24.70;95.40;;;;;;5074820;28;20013;-66
2022/06/09 08:10:46;;;;;;;6.50;1.38;;;24.70;95.60;;;;;;5074500;28;20025;-66
2022/06/09 08:13:12;;;;;;;4.75;1.48;;;24.80;95.10;;;;;;5074409;28;20103;-64
2022/06/09 08:15:40;;;;;;;8.48;1.42;;;24.70;95.10;;;;;;5074724;28;20112;-68
2022/06/09 08:18:06;;;;;;;7.32;1.60;;;24.70;95.20;;;;;;5073135;28;20021;-64
2022/06/09 08:20:34;;;;;;;9.88;1.80;;;25.10;94.80;;;;;;5074118;28;20047;-65
2022/06/09 08:23:10;;;;;;;10.55;2.45;;;25.40;94.40;;;;;;5074733;28;20459;-64
2022/06/09 08:25:37;;;;;;;9.80;1.60;;;25.90;94.00;;;;;;5074275;28;20021;-66
2022/06/09 08:28:04;;;;;;;13.05;3.65;;;26.60;93.40;;;;;;5074593;28;20067;-66
2022/06/09 08:30:31;;;;;;;8.15;1.92;;;27.40;92.50;;;;;;5073792;28;20081;-66
2022/06/09 08:32:57;;;;;;;5.30;1.40;;;28.20;92.30;;;;;;5074167;28;20061;-65
2022/06/09 08:35:24;;;;;;;7.32;1.55;;;29.10;90.80;;;;;;5073477;28;20656;-65
2022/06/09 08:37:51;;;;;;;7.63;1.55;;;29.90;90.10;;;;;;5072130;28;20115;-68
2022/06/09 08:40:23;;;;;;;9.05;2.17;;;30.70;88.20;;;;;;5072724;28;20043;-65
2022/06/09 08:43:15;;;;;;;6.82;1.77;;;31.30;85.10;;;;;;5072606;28;20020;-66
2022/06/09 08:45:42;;;;;;;12.43;2.40;;;31.80;83.30;;;;;;5072784;28;20103;-63
2022/06/09 08:48:22;;;;;;;8.35;1.98;;;32.20;81.50;;;;;;5072680;28;20033;-66
2022/06/09 08:51:03;;;;;;;6.70;1.25;;;32.10;79.80;;;;;;5073947;28;20111;-66
2022/06/09 08:53:34;;;;;;;7.17;1.90;;;32.20;78.60;;;;;;5072333;28;20389;-65
2022/06/09 08:56:26;;;;;;;9.32;1.90;;;32.40;78.20;;;;;;5074019;28;20473;-66
2022/06/09 08:58:58;;;;;;;16.45;2.20;;;32.50;76.60;;;;;;5059728;28;20033;-66
2022/06/09 09:01:48;;;;;;;8.52;1.30;;;32.60;75.70;;;;;;5072622;28;20036;-66
2022/06/09 09:04:18;;;;;;;8.50;1.77;;;32.70;75.10;;;;;;5072674;28;20052;-65
2022/06/09 09:07:04;;;;;;;7.80;1.77;;;32.90;75.00;;;;;;5072368;28;20021;-65
2022/06/09 09:09:33;;;;;;;9.93;2.75;;;33.00;73.80;;;;;;5071394;28;20028;-68
2022/06/09 09:12:07;;;;;;;12.13;2.90;;;33.20;74.20;;;;;;5071766;28;20017;-66
2022/06/09 09:14:44;;;;;;;6.63;1.95;;;33.50;73.60;;;;;;5069282;28;20042;-66
2022/06/09 09:17:13;;;;;;;9.05;3.13;;;33.70;72.90;;;;;;5071782;28;20020;-66
2022/06/09 09:19:58;;;;;;;10.52;2.35;;;33.80;71.90;;;;;;5071038;28;20025;-66
2022/06/09 09:22:58;;;;;;;9.00;2.63;;;33.80;71.20;;;;;;5071347;28;20771;-67
2022/06/09 09:25:47;;;;;;;9.48;2.58;;;33.80;71.30;;;;;;5071169;28;20032;-64
2022/06/09 09:28:18;;;;;;;7.40;2.72;;;33.70;71.10;;;;;;5069479;28;20016;-68
2022/06/09 09:31:01;;;;;;;6.35;1.67;;;33.90;71.10;;;;;;5071212;28;20501;-66
2022/06/09 09:33:27;;;;;;;9.48;2.22;;;33.80;71.00;;;;;;5071692;28;20017;-67
2022/06/09 09:35:59;;;;;;;6.15;2.10;;;33.70;69.90;;;;;;5070558;28;20017;-66
2022/06/09 09:38:35;;;;;;;9.02;2.35;;;33.20;71.00;;;;;;5071094;28;20108;-66
2022/06/09 09:41:01;;;;;;;10.95;2.33;;;33.20;71.60;;;;;;5071418;28;20060;-66
2022/06/09 09:43:39;;;;;;;11.00;2.40;;;33.10;71.80;;;;;;5068624;28;20035;-65
2022/06/09 09:46:20;;;;;;;9.80;2.30;;;33.10;71.80;;;;;;5071270;28;20070;-67
2022/06/09 09:48:47;;;;;;;7.05;1.92;;;33.00;71.60;;;;;;5070968;28;20473;-65
2022/06/09 09:51:13;;;;;;;8.68;2.35;;;33.00;71.70;;;;;;5069832;28;20024;-65
2022/06/09 09:53:48;;;;;;;11.18;2.50;;;32.90;72.30;;;;;;5067864;28;20473;-65
2022/06/09 09:56:17;;;;;;;6.35;2.00;;;32.90;71.00;;;;;;5065881;28;20052;-65
2022/06/09 09:58:48;;;;;;;8.52;1.83;;;32.90;71.10;;;;;;5071014;28;20039;-65
2022/06/09 10:01:17;;;;;;;6.25;1.95;;;33.10;71.00;;;;;;5070985;28;20111;-67
2022/06/09 10:09:39;;;;;;;6.80;2.15;;;34.30;69.80;;;;;;5069333;28;20174;-67
2022/06/09 10:12:16;;;;;;;6.25;2.45;;;34.40;68.20;;;;;;5071605;28;20016;-65
2022/06/09 10:14:51;;;;;;;9.43;1.67;;;34.60;68.20;;;;;;5070734;28;20017;-67
2022/06/09 10:17:31;;;;;;;12.52;2.40;;;34.70;67.40;;;;;;5068321;28;20025;-66
2022/06/09 10:20:05;;;;;;;14.82;2.90;;;34.70;67.20;;;;;;5065573;28;20113;-67
2022/06/09 10:22:37;;;;;;;12.70;2.67;;;34.70;66.50;;;;;;5064912;28;20458;-65
2022/06/09 10:25:18;;;;;;;9.95;2.40;;;34.80;67.10;;;;;;5070304;28;20533;-64
2022/06/09 10:27:47;;;;;;;13.23;3.22;;;35.10;66.90;;;;;;5070677;28;20020;-65
2022/06/09 10:30:22;;;;;;;11.50;2.65;;;35.30;66.70;;;;;;5070496;28;20044;-67
2022/06/09 10:32:56;;;;;;;15.23;4.20;;;35.60;66.40;;;;;;5068050;28;20127;-65
2022/06/09 10:35:29;;;;;;;10.73;2.47;;;35.90;65.70;;;;;;5070783;28;20024;-67
2022/06/09 10:38:05;;;;;;;14.63;3.47;;;35.90;64.50;;;;;;5069948;28;20116;-66
2022/06/09 10:40:44;;;;;;;12.00;2.60;;;35.70;64.50;;;;;;5063407;28;20044;-65
2022/06/09 10:43:32;;;;;;;11.57;2.20;;;35.50;64.60;;;;;;5070596;28;20132;-66
2022/06/09 10:46:05;;;;;;;13.02;3.08;;;35.00;64.50;;;;;;5069417;28;20013;-65
2022/06/09 10:55:14;;;;;;;17.98;3.10;;;35.10;65.50;;;;;;5071431;28;20405;-65
2022/06/09 10:57:42;;;;;;;9.60;2.20;;;34.90;64.90;;;;;;5071097;28;20075;-65
2022/06/09 11:00:23;;;;;;;15.20;2.95;;;34.60;64.40;;;;;;5071501;28;20020;-65
2022/06/09 11:02:54;;;;;;;10.30;3.03;;;34.30;64.40;;;;;;5064527;28;20094;-64
2022/06/09 11:05:30;;;;;;;11.00;2.67;;;33.80;65.10;;;;;;5060928;28;20043;-69
2022/06/09 11:08:01;;;;;;;9.93;2.53;;;33.70;65.60;;;;;;5070057;28;20016;-66
2022/06/09 11:10:44;;;;;;;13.27;2.97;;;33.90;65.30;;;;;;5071770;28;20048;-66
2022/06/09 11:13:25;;;;;;;13.93;2.97;;;33.90;65.60;;;;;;5071509;28;20024;-66
2022/06/09 11:16:07;;;;;;;13.15;2.70;;;33.80;64.90;;;;;;5071363;28;20021;-66
2022/06/09 11:18:53;;;;;;;11.35;2.35;;;33.70;65.40;;;;;;5071396;28;20085;-67
2022/06/09 11:21:30;;;;;;;12.10;2.78;;;33.90;65.20;;;;;;5071144;28;20028;-65
2022/06/09 11:24:33;;;;;;;12.70;2.70;;;34.10;64.90;;;;;;5073328;28;20048;-66
2022/06/09 11:27:07;;;;;;;12.43;2.60;;;34.10;65.10;;;;;;5074757;28;20028;-67
2022/06/09 11:30:18;;;;;;;13.05;2.33;;;34.00;64.50;;;;;;5071475;28;20493;-66
2022/06/09 11:33:11;;;;;;;12.98;2.70;;;33.60;64.90;;;;;;5055718;28;20059;-66
2022/06/09 11:35:55;;;;;;;12.57;2.10;;;33.60;64.70;;;;;;5075160;28;20028;-66
2022/06/09 11:38:29;;;;;;;11.32;2.55;;;33.80;64.50;;;;;;5074816;28;20032;-64
2022/06/09 11:41:22;;;;;;;11.85;2.88;;;34.00;64.30;;;;;;5074729;28;20025;-67
2022/06/09 11:44:06;;;;;;;11.68;2.28;;;34.10;64.40;;;;;;5074990;28;20047;-65
2022/06/09 11:46:39;;;;;;;9.32;2.75;;;34.30;63.60;;;;;;5074541;28;20024;-66
2022/06/09 11:49:10;;;;;;;11.02;2.55;;;34.50;63.60;;;;;;5075258;28;20028;-64
2022/06/09 11:51:36;;;;;;;10.20;2.45;;;34.60;63.20;;;;;;5073766;28;20025;-68
2022/06/09 11:54:05;;;;;;;15.10;2.95;;;34.80;63.20;;;;;;5074994;28;20093;-65
2022/06/09 11:56:45;;;;;;;11.05;2.40;;;34.80;63.30;;;;;;5074819;28;20059;-65
2022/06/09 11:59:17;;;;;;;8.60;2.10;;;34.60;63.60;;;;;;5074444;28;20031;-66
2022/06/09 12:02:02;;;;;;;10.50;2.13;;;34.80;62.60;;;;;;5068489;28;20119;-65
2022/06/09 12:04:56;;;;;;;11.82;2.30;;;34.90;62.60;;;;;;5069546;28;20038;-67
2022/06/09 12:07:44;;;;;;;7.80;1.80;;;35.00;62.30;;;;;;5068454;28;20053;-66
2022/06/09 12:10:35;;;;;;;11.10;2.05;;;34.90;61.70;;;;;;5054138;28;20025;-66
2022/06/09 12:13:25;;;;;;;11.83;2.20;;;34.90;61.90;;;;;;5053395;28;20361;-67
2022/06/09 12:15:59;;;;;;;10.07;2.67;;;35.10;62.00;;;;;;5054605;28;20029;-65
2022/06/09 12:18:32;;;;;;;7.65;1.83;;;35.00;61.40;;;;;;5054073;28;20052;-65
2022/06/09 12:21:05;;;;;;;13.35;2.22;;;34.90;62.00;;;;;;5072125;28;20489;-69
2022/06/09 12:23:41;;;;;;;9.07;1.75;;;35.10;61.40;;;;;;5072879;28;20021;-66
2022/06/09 12:26:10;;;;;;;9.57;2.13;;;35.20;61.40;;;;;;5073977;28;20120;-66
2022/06/09 12:29:00;;;;;;;8.73;1.90;;;35.30;61.60;;;;;;5074697;28;20028;-65
2022/06/09 12:31:27;;;;;;;10.10;2.17;;;35.00;60.40;;;;;;5072425;28;20049;-65
2022/06/09 12:34:00;;;;;;;10.40;2.22;;;34.70;61.80;;;;;;5073761;28;20021;-65
2022/06/09 12:36:57;;;;;;;11.10;2.13;;;34.20;62.20;;;;;;5074176;28;20020;-64
2022/06/09 12:39:39;;;;;;;8.10;1.90;;;33.70;62.10;;;;;;5042658;28;20032;-69
2022/06/09 12:42:18;;;;;;;15.90;3.10;;;32.90;63.50;;;;;;5056353;28;20123;-66
2022/06/09 12:45:01;;;;;;;9.50;2.03;;;32.70;64.20;;;;;;5083142;28;20012;-67
2022/06/09 12:47:29;;;;;;;8.82;1.90;;;32.40;63.70;;;;;;5073484;28;20082;-66
2022/06/09 12:49:59;;;;;;;13.25;2.50;;;31.80;64.30;;;;;;5073080;28;20032;-66
2022/06/09 12:52:28;;;;;;;12.40;2.42;;;31.20;65.70;;;;;;5073476;28;20396;-65
2022/06/09 12:55:08;;;;;;;11.93;2.60;;;30.60;66.40;;;;;;5073302;28;20024;-68
2022/06/09 12:57:57;;;;;;;16.92;2.50;;;29.90;67.90;;;;;;5054824;28;20155;-66
2022/06/09 13:00:36;;;;;;;12.23;2.45;;;29.30;68.90;;;;;;5054567;28;20108;-64
2022/06/09 13:03:16;;;;;;;12.90;2.75;;;28.80;69.90;;;;;;5073283;28;20075;-65
2022/06/09 13:05:45;;;;;;;13.85;3.00;;;28.30;70.20;;;;;;5071070;28;20103;-66
2022/06/09 13:08:43;;;;;;;11.20;2.60;;;27.80;71.80;;;;;;5069602;28;20032;-65
2022/06/09 13:11:19;;;;;;;11.40;2.45;;;27.40;72.50;;;;;;5072827;28;20024;-65
2022/06/09 13:13:56;;;;;;;8.60;1.85;;;27.00;72.80;;;;;;5073319;28;20082;-65
2022/06/09 13:16:24;;;;;;;8.60;2.03;;;26.70;71.90;;;;;;5053197;28;20094;-67
2022/06/09 13:19:03;;;;;;;14.52;3.08;;;26.40;73.20;;;;;;5053154;28;20075;-67
2022/06/09 13:21:36;;;;;;;10.02;1.80;;;26.20;74.50;;;;;;5057757;28;20032;-67
2022/06/09 13:24:07;;;;;;;8.02;2.35;;;26.00;74.40;;;;;;5060514;28;20048;-65
2022/06/09 13:26:38;;;;;;;11.00;2.38;;;25.80;73.80;;;;;;5068816;28;20043;-65
2022/06/09 13:29:16;;;;;;;9.98;1.95;;;25.60;75.40;;;;;;5061397;28;20519;-66